Terminal Aerodrome Forecast
Issued by NWS Austin/San Antonio, TX

Home | Current Version | Previous Version | Text Only | Print | Product List | Glossary On
Versions: 1 2 3 4 5 6 7 8 9 10 11 12 13 14 15 16 17 18 19 20 21
000
FTUS44 KEWX 021700
TAFDRT
TAF
KDRT 021720Z 0218/0318 32005KT P6SM OVC009
     FM021900 12006KT P6SM OVC015
     FM022100 13011KT P6SM OVC025
     FM030500 11009KT P6SM OVC007
     FM030800 12006KT 4SM BR OVC003=

USA.gov is the U.S. government's official web portal to all federal, state and local government web resources and services.